Time,TemperatureF,DewpointF,PressureIn,WindDirection,WindDirectionDegrees,WindSpeedMPH,WindSpeedGustMPH,Humidity,HourlyPrecipIn,Conditions,Clouds,dailyrainin,SoftwareType,DateUTC
2013-12-10 06:12:00,23.5,14.9,29.68,NNW,337,0.0,1.0,69,0.00,,---,0.00,VWS V14.00,2013-12-10 12:12:00,
2013-12-10 06:17:00,23.5,14.9,29.68,NNW,336,0.0,1.0,69,0.00,,---,0.00,VWS V14.00,2013-12-10 12:17:00,
2013-12-10 06:22:00,23.5,14.9,29.68,NNW,335,0.0,1.0,69,0.00,,---,0.00,VWS V14.00,2013-12-10 12:22:00,
2013-12-10 06:27:00,23.4,15.0,29.68,NW,311,0.0,1.0,70,0.00,,---,0.00,VWS V14.00,2013-12-10 12:27:00,
2013-12-10 06:32:00,23.4,15.0,29.68,WNW,293,0.0,1.0,70,0.00,,---,0.00,VWS V14.00,2013-12-10 12:32:00,
2013-12-10 06:37:00,23.2,15.2,29.71,NW,307,0.0,1.0,71,0.00,,---,0.00,VWS V14.00,2013-12-10 12:37:00,
2013-12-10 06:42:00,23.2,15.2,29.71,NNW,328,0.0,1.0,71,0.00,,---,0.00,VWS V14.00,2013-12-10 12:42:00,
2013-12-10 06:47:00,23.0,15.3,29.71,NW,309,0.0,1.0,72,0.00,,---,0.00,VWS V14.00,2013-12-10 12:47:00,
2013-12-10 06:52:00,23.0,15.3,29.71,NNW,338,0.0,1.0,72,0.00,,---,0.00,VWS V14.00,2013-12-10 12:52:00,
2013-12-10 06:57:00,22.8,15.2,29.71,NW,325,0.0,1.0,72,0.00,,---,0.00,VWS V14.00,2013-12-10 12:57:00,
2013-12-10 07:02:00,22.6,15.0,29.71,NNW,333,0.0,1.0,72,0.00,,---,0.00,VWS V14.00,2013-12-10 13:02:00,
2013-12-10 07:07:00,22.5,14.8,29.71,West,263,0.0,1.0,72,0.00,,---,0.00,VWS V14.00,2013-12-10 13:07:00,
2013-12-10 07:12:00,22.5,14.8,29.71,NNW,343,0.0,1.0,72,0.00,,---,0.00,VWS V14.00,2013-12-10 13:12:00,
2013-12-10 07:17:00,22.5,14.8,29.71,NW,324,0.0,1.0,72,0.00,,---,0.00,VWS V14.00,2013-12-10 13:17:00,
2013-12-10 07:22:00,22.3,14.6,29.71,NNW,333,0.0,1.0,72,0.00,,---,0.00,VWS V14.00,2013-12-10 13:22:00,
2013-12-10 07:27:00,22.3,14.6,29.71,NNW,333,0.0,1.0,72,0.00,,---,0.00,VWS V14.00,2013-12-10 13:27:00,
2013-12-10 07:32:00,22.3,15.0,29.71,North,353,0.0,1.0,73,0.00,,---,0.00,VWS V14.00,2013-12-10 13:32:00,
2013-12-10 07:37:00,22.3,15.0,29.71,NNW,332,0.0,1.0,73,0.00,,---,0.00,VWS V14.00,2013-12-10 13:37:00,
2013-12-10 07:42:00,22.6,15.3,29.71,NNW,327,0.0,1.0,73,0.00,,---,0.00,VWS V14.00,2013-12-10 13:42:00,
2013-12-10 07:47:00,22.6,15.3,29.71,NW,326,0.0,1.0,73,0.00,,---,0.00,VWS V14.00,2013-12-10 13:47:00,
2013-12-10 07:52:00,22.8,15.8,29.74,NW,321,0.0,1.0,74,0.00,,---,0.00,VWS V14.00,2013-12-10 13:52:00,
2013-12-10 07:57:00,22.8,15.8,29.74,NW,311,0.0,1.0,74,0.00,,---,0.00,VWS V14.00,2013-12-10 13:57:00,
2013-12-10 08:02:00,22.8,15.8,29.74,West,281,0.0,1.0,74,0.00,,---,0.00,VWS V14.00,2013-12-10 14:02:00,
2013-12-10 08:07:00,23.0,16.0,29.74,NNE,26,0.0,1.0,74,0.00,,---,0.00,VWS V14.00,2013-12-10 14:07:00,
2013-12-10 08:12:00,23.0,16.0,29.74,NNW,333,0.0,1.0,74,0.00,,---,0.00,VWS V14.00,2013-12-10 14:12:00,
2013-12-10 08:17:00,23.0,16.3,29.74,NW,324,0.0,1.0,75,0.00,,---,0.00,VWS V14.00,2013-12-10 14:17:00,
2013-12-10 08:22:00,23.0,16.3,29.74,NNE,20,0.0,1.0,75,0.00,,---,0.00,VWS V14.00,2013-12-10 14:22:00,
2013-12-10 08:27:00,23.2,16.1,29.74,NNW,339,0.0,1.0,74,0.00,,---,0.00,VWS V14.00,2013-12-10 14:27:00,
2013-12-10 08:32:00,23.2,16.1,29.74,NW,322,0.0,1.0,74,0.00,,---,0.00,VWS V14.00,2013-12-10 14:32:00,
2013-12-10 08:37:00,23.4,16.6,29.74,NNW,341,0.0,1.0,75,0.00,,---,0.00,VWS V14.00,2013-12-10 14:37:00,
2013-12-10 08:42:00,23.5,16.8,29.74,North,357,0.0,1.0,75,0.00,,---,0.00,VWS V14.00,2013-12-10 14:42:00,
2013-12-10 08:47:00,23.5,16.8,29.74,NW,307,0.0,1.0,75,0.00,,---,0.00,VWS V14.00,2013-12-10 14:47:00,
2013-12-10 08:52:00,23.7,17.0,29.74,NW,324,0.0,1.0,75,0.00,,---,0.00,VWS V14.00,2013-12-10 14:52:00,
2013-12-10 08:57:00,23.7,17.0,29.74,North,357,0.0,1.0,75,0.00,,---,0.00,VWS V14.00,2013-12-10 14:57:00,
2013-12-10 09:02:00,24.4,17.7,29.74,NW,324,0.0,1.0,75,0.00,,---,0.00,VWS V14.00,2013-12-10 15:02:00,
2013-12-10 09:07:00,24.4,17.7,29.74,NNW,341,0.0,1.0,75,0.00,,---,0.00,VWS V14.00,2013-12-10 15:07:00,
2013-12-10 09:12:00,24.3,17.2,29.74,NW,307,0.0,1.0,74,0.00,,---,0.00,VWS V14.00,2013-12-10 15:12:00,
2013-12-10 09:17:00,24.4,17.4,29.74,NW,307,0.0,1.0,74,0.00,,---,0.00,VWS V14.00,2013-12-10 15:17:00,
2013-12-10 09:22:00,24.6,17.5,29.74,West,273,0.0,1.0,74,0.00,,---,0.00,VWS V14.00,2013-12-10 15:22:00,
2013-12-10 09:27:00,24.6,17.5,29.74,NW,308,0.0,1.0,74,0.00,,---,0.00,VWS V14.00,2013-12-10 15:27:00,
2013-12-10 09:32:00,24.8,17.4,29.74,NW,317,0.0,1.0,73,0.00,,---,0.00,VWS V14.00,2013-12-10 15:32:00,
2013-12-10 09:37:00,24.8,17.4,29.74,SSW,202,0.0,1.0,73,0.00,,---,0.00,VWS V14.00,2013-12-10 15:37:00,
2013-12-10 09:42:00,25.3,17.6,29.74,West,271,0.0,1.0,72,0.00,,---,0.00,VWS V14.00,2013-12-10 15:42:00,
2013-12-10 09:47:00,25.3,17.3,29.74,West,265,0.0,1.0,71,0.00,,---,0.00,VWS V14.00,2013-12-10 15:47:00,
2013-12-10 09:52:00,25.3,17.3,29.74,North,357,0.0,1.0,71,0.00,,---,0.00,VWS V14.00,2013-12-10 15:52:00,
2013-12-10 10:05:00,26.2,17.5,29.74,WNW,291,0.0,1.0,69,0.00,,---,0.00,VWS V14.00,2013-12-10 16:05:00,
2013-12-10 10:11:00,26.6,17.8,29.74,West,269,0.0,1.0,69,0.00,,---,0.00,VWS V14.00,2013-12-10 16:11:00,
2013-12-10 10:16:00,26.6,17.8,29.74,WNW,300,0.0,1.0,69,0.00,,---,0.00,VWS V14.00,2013-12-10 16:16:00,
2013-12-10 10:21:00,26.8,17.6,29.74,West,271,0.0,1.0,68,0.00,,---,0.00,VWS V14.00,2013-12-10 16:21:00,
2013-12-10 10:26:00,27.1,17.6,29.74,SW,217,0.0,1.0,67,0.00,,---,0.00,VWS V14.00,2013-12-10 16:26:00,
2013-12-10 10:31:00,27.3,17.8,29.74,West,281,0.0,1.0,67,0.00,,---,0.00,VWS V14.00,2013-12-10 16:31:00,
2013-12-10 10:36:00,27.9,18.3,29.74,West,276,0.0,1.0,67,0.00,,---,0.00,VWS V14.00,2013-12-10 16:36:00,
2013-12-10 10:41:00,28.2,18.3,29.74,West,267,0.0,1.0,66,0.00,,---,0.00,VWS V14.00,2013-12-10 16:41:00,
2013-12-10 10:46:00,28.2,18.0,29.74,WSW,254,0.0,1.0,65,0.00,,---,0.00,VWS V14.00,2013-12-10 16:46:00,
2013-12-10 10:51:00,28.4,18.1,29.74,WNW,290,0.0,1.0,65,0.00,,---,0.00,VWS V14.00,2013-12-10 16:51:00,
2013-12-10 10:56:00,28.9,18.3,29.74,WNW,297,0.0,1.0,64,0.00,,---,0.00,VWS V14.00,2013-12-10 16:56:00,
2013-12-10 11:01:00,29.1,18.1,29.74,SSW,197,0.0,1.0,63,0.00,,---,0.00,VWS V14.00,2013-12-10 17:01:00,
2013-12-10 11:06:00,29.5,18.5,29.74,SSW,207,0.0,1.0,63,0.00,,---,0.00,VWS V14.00,2013-12-10 17:06:00,
2013-12-10 11:11:00,29.7,18.6,29.74,WNW,295,0.0,1.0,63,0.00,,---,0.00,VWS V14.00,2013-12-10 17:11:00,
2013-12-10 11:15:00,29.8,18.4,29.74,SW,214,0.0,1.0,62,0.00,,---,0.00,VWS V14.00,2013-12-10 17:15:00,
2013-12-10 11:20:00,30.0,18.6,29.74,WNW,295,0.0,1.0,62,0.00,,---,0.00,VWS V14.00,2013-12-10 17:20:00,
2013-12-10 11:25:00,30.6,19.1,29.74,West,280,0.0,1.0,62,0.00,,---,0.00,VWS V14.00,2013-12-10 17:25:00,
2013-12-10 11:30:00,30.6,19.1,29.74,WNW,286,0.0,1.0,62,0.00,,---,0.00,VWS V14.00,2013-12-10 17:30:00,
2013-12-10 11:35:00,30.6,19.1,29.74,West,279,0.0,1.0,62,0.00,,---,0.00,VWS V14.00,2013-12-10 17:35:00,
2013-12-10 11:40:00,31.1,19.2,29.74,SW,235,0.0,1.0,61,0.00,,---,0.00,VWS V14.00,2013-12-10 17:40:00,
2013-12-10 11:45:00,31.5,19.6,29.74,WSW,250,0.0,1.0,61,0.00,,---,0.00,VWS V14.00,2013-12-10 17:45:00,
2013-12-10 11:50:00,31.6,19.8,29.74,SW,215,0.0,1.0,61,0.00,,---,0.00,VWS V14.00,2013-12-10 17:50:00,
2013-12-10 11:55:00,31.8,19.5,29.74,West,260,0.0,1.0,60,0.00,,---,0.00,VWS V14.00,2013-12-10 17:55:00,
2013-12-10 12:00:00,32.0,19.3,29.74,West,276,0.0,1.0,59,0.00,,---,0.00,VWS V14.00,2013-12-10 18:00:00,
2013-12-10 12:05:00,31.8,19.1,29.71,West,272,0.0,1.0,59,0.00,,---,0.00,VWS V14.00,2013-12-10 18:05:00,
2013-12-10 12:10:00,32.0,19.3,29.71,West,264,0.0,1.0,59,0.00,,---,0.00,VWS V14.00,2013-12-10 18:10:00,
2013-12-10 12:15:00,32.0,19.3,29.71,SSW,197,0.0,1.0,59,0.00,,---,0.00,VWS V14.00,2013-12-10 18:15:00,
2013-12-10 12:20:00,32.9,20.2,29.71,WSW,238,0.0,1.0,59,0.00,,---,0.00,VWS V14.00,2013-12-10 18:20:00,
2013-12-10 12:25:00,32.7,20.0,29.71,West,268,0.0,1.0,59,0.00,,---,0.00,VWS V14.00,2013-12-10 18:25:00,
2013-12-10 12:30:00,32.7,20.0,29.71,WSW,254,0.0,1.0,59,0.00,,---,0.00,VWS V14.00,2013-12-10 18:30:00,
2013-12-10 12:35:00,32.7,20.0,29.71,SSW,192,0.0,1.0,59,0.00,,---,0.00,VWS V14.00,2013-12-10 18:35:00,
2013-12-10 12:40:00,33.3,20.5,29.71,WSW,246,0.0,1.0,59,0.00,,---,0.00,VWS V14.00,2013-12-10 18:40:00,
2013-12-10 12:45:00,33.1,20.3,29.71,West,267,0.0,1.0,59,0.00,,---,0.00,VWS V14.00,2013-12-10 18:45:00,
2013-12-10 12:50:00,33.1,20.3,29.71,SW,216,0.0,1.0,59,0.00,,---,0.00,VWS V14.00,2013-12-10 18:50:00,
2013-12-10 12:55:00,33.1,20.3,29.71,SSW,206,0.0,1.0,59,0.00,,---,0.00,VWS V14.00,2013-12-10 18:55:00,
2013-12-10 13:00:00,33.6,20.0,29.71,SW,222,0.0,1.0,57,0.00,,---,0.00,VWS V14.00,2013-12-10 19:00:00,
2013-12-10 13:05:00,33.8,20.2,29.71,WNW,288,0.0,1.0,57,0.00,,---,0.00,VWS V14.00,2013-12-10 19:05:00,
2013-12-10 13:10:00,34.0,20.4,29.71,SSW,194,0.0,1.0,57,0.00,,---,0.00,VWS V14.00,2013-12-10 19:10:00,
2013-12-10 13:15:00,34.5,20.9,29.71,SW,215,0.0,1.0,57,0.00,,---,0.00,VWS V14.00,2013-12-10 19:15:00,
2013-12-10 13:20:00,34.3,20.3,29.71,WSW,256,0.0,1.0,56,0.00,,---,0.00,VWS V14.00,2013-12-10 19:20:00,
2013-12-10 13:25:00,34.3,19.9,29.71,West,279,0.0,1.0,55,0.00,,---,0.00,VWS V14.00,2013-12-10 19:25:00,
2013-12-10 13:30:00,35.1,21.0,29.71,West,277,0.0,1.0,56,0.00,,---,0.00,VWS V14.00,2013-12-10 19:30:00,
2013-12-10 13:35:00,34.9,20.8,29.71,West,263,0.0,1.0,56,0.00,,---,0.00,VWS V14.00,2013-12-10 19:35:00,
2013-12-10 13:40:00,34.7,20.2,29.71,West,266,0.0,1.0,55,0.00,,---,0.00,VWS V14.00,2013-12-10 19:40:00,
2013-12-10 13:45:00,34.5,19.6,29.71,West,272,0.0,1.0,54,0.00,,---,0.00,VWS V14.00,2013-12-10 19:45:00,
2013-12-10 13:50:00,34.3,19.4,29.71,West,274,0.0,1.0,54,0.00,,---,0.00,VWS V14.00,2013-12-10 19:50:00,
2013-12-10 13:55:00,34.9,19.9,29.71,SSW,197,0.0,1.0,54,0.00,,---,0.00,VWS V14.00,2013-12-10 19:55:00,
2013-12-10 14:00:00,34.9,19.5,29.71,WSW,254,0.0,1.0,53,0.00,,---,0.00,VWS V14.00,2013-12-10 20:00:00,
2013-12-10 14:05:00,35.1,19.7,29.71,WNW,283,0.0,1.0,53,0.00,,---,0.00,VWS V14.00,2013-12-10 20:05:00,
2013-12-10 14:10:00,35.4,20.4,29.71,West,264,0.0,1.0,54,0.00,,---,0.00,VWS V14.00,2013-12-10 20:10:00,
2013-12-10 14:15:00,35.6,20.2,29.71,WSW,247,0.0,1.0,53,0.00,,---,0.00,VWS V14.00,2013-12-10 20:15:00,
2013-12-10 14:20:00,35.4,20.4,29.71,WNW,282,0.0,1.0,54,0.00,,---,0.00,VWS V14.00,2013-12-10 20:20:00,
2013-12-10 14:25:00,35.4,20.4,29.71,West,260,0.0,1.0,54,0.00,,---,0.00,VWS V14.00,2013-12-10 20:25:00,
2013-12-10 14:30:00,35.4,20.4,29.71,SW,234,0.0,1.0,54,0.00,,---,0.00,VWS V14.00,2013-12-10 20:30:00,
2013-12-10 14:35:00,35.2,19.8,29.71,West,278,0.0,1.0,53,0.00,,---,0.00,VWS V14.00,2013-12-10 20:35:00,
2013-12-10 14:40:00,35.1,19.7,29.71,West,277,0.0,1.0,53,0.00,,---,0.00,VWS V14.00,2013-12-10 20:40:00,
2013-12-10 14:45:00,35.1,19.2,29.71,WSW,240,0.0,1.0,52,0.00,,---,0.04,VWS V14.00,2013-12-10 20:45:00,
2013-12-10 14:50:00,35.1,19.2,29.71,West,275,0.0,1.0,52,0.00,,---,0.04,VWS V14.00,2013-12-10 20:50:00,
2013-12-10 14:55:00,35.2,19.4,29.71,SW,224,0.0,1.0,52,0.00,,---,0.04,VWS V14.00,2013-12-10 20:55:00,
2013-12-10 15:00:00,35.2,19.4,29.71,West,268,0.0,1.0,52,0.00,,---,0.04,VWS V14.00,2013-12-10 21:00:00,
2013-12-10 15:05:00,35.1,19.2,29.71,West,263,0.0,1.0,52,0.00,,---,0.04,VWS V14.00,2013-12-10 21:05:00,
2013-12-10 15:10:00,34.9,19.1,29.71,SSW,210,0.0,1.0,52,0.00,,---,0.04,VWS V14.00,2013-12-10 21:10:00,
2013-12-10 15:15:00,34.9,19.1,29.71,SSE,159,0.0,1.0,52,0.00,,---,0.04,VWS V14.00,2013-12-10 21:15:00,
2013-12-10 15:20:00,35.1,19.7,29.71,West,261,0.0,1.0,53,0.00,,---,0.04,VWS V14.00,2013-12-10 21:20:00,
2013-12-10 15:25:00,34.9,19.5,29.71,WSW,258,0.0,1.0,53,0.00,,---,0.04,VWS V14.00,2013-12-10 21:25:00,
2013-12-10 15:30:00,34.9,19.5,29.71,West,274,0.0,1.0,53,0.00,,---,0.04,VWS V14.00,2013-12-10 21:30:00,
2013-12-10 15:35:00,34.5,19.2,29.71,West,272,0.0,1.0,53,0.00,,---,0.04,VWS V14.00,2013-12-10 21:35:00,
2013-12-10 15:40:00,34.5,19.2,29.71,WSW,248,0.0,1.0,53,0.00,,---,0.04,VWS V14.00,2013-12-10 21:40:00,
2013-12-10 15:45:00,34.3,19.0,29.71,West,267,0.0,1.0,53,0.00,,---,0.04,VWS V14.00,2013-12-10 21:45:00,
2013-12-10 15:50:00,34.2,19.3,29.71,West,267,0.0,1.0,54,0.00,,---,0.04,VWS V14.00,2013-12-10 21:50:00,
2013-12-10 15:55:00,34.0,19.1,29.71,SSW,210,0.0,1.0,54,0.00,,---,0.04,VWS V14.00,2013-12-10 21:55:00,
2013-12-10 16:00:00,33.8,18.9,29.71,West,270,0.0,1.0,54,0.00,,---,0.04,VWS V14.00,2013-12-10 22:00:00,
2013-12-10 16:05:00,33.6,19.2,29.71,WSW,238,0.0,1.0,55,0.00,,---,0.04,VWS V14.00,2013-12-10 22:05:00,
2013-12-10 16:10:00,33.3,18.9,29.71,West,261,0.0,1.0,55,0.00,,---,0.04,VWS V14.00,2013-12-10 22:10:00,
2013-12-10 16:15:00,33.1,19.1,29.71,WSW,243,0.0,1.0,56,0.00,,---,0.04,VWS V14.00,2013-12-10 22:15:00,
2013-12-10 16:20:00,32.7,18.8,29.71,WSW,239,0.0,1.0,56,0.00,,---,0.04,VWS V14.00,2013-12-10 22:20:00,
2013-12-10 16:25:00,32.5,19.0,29.71,WSW,253,0.0,1.0,57,0.00,,---,0.04,VWS V14.00,2013-12-10 22:25:00,
2013-12-10 16:30:00,32.4,18.8,29.71,West,262,0.0,1.0,57,0.00,,---,0.04,VWS V14.00,2013-12-10 22:30:00,
2013-12-10 16:35:00,32.2,19.1,29.71,WSW,244,0.0,1.0,58,0.00,,---,0.04,VWS V14.00,2013-12-10 22:35:00,
2013-12-10 16:40:00,32.0,18.9,29.71,WSW,250,0.0,1.0,58,0.00,,---,0.04,VWS V14.00,2013-12-10 22:40:00,
2013-12-10 16:45:00,31.8,18.7,29.71,WSW,257,0.0,1.0,58,0.00,,---,0.04,VWS V14.00,2013-12-10 22:45:00,
2013-12-10 16:51:00,31.6,19.0,29.71,WSW,245,0.0,1.0,59,0.00,,---,0.04,VWS V14.00,2013-12-10 22:51:00,
2013-12-10 16:55:00,31.3,18.6,29.71,WSW,245,0.0,1.0,59,0.00,,---,0.04,VWS V14.00,2013-12-10 22:55:00,
2013-12-10 17:00:00,31.1,18.5,29.71,WSW,245,0.0,1.0,59,0.00,,---,0.04,VWS V14.00,2013-12-10 23:00:00,
2013-12-10 17:06:00,30.7,18.1,29.71,WSW,245,0.0,1.0,59,0.00,,---,0.04,VWS V14.00,2013-12-10 23:06:00,
2013-12-10 17:11:00,30.2,17.6,29.71,WSW,245,0.0,1.0,59,0.00,,---,0.04,VWS V14.00,2013-12-10 23:11:00,
2013-12-10 17:16:00,30.0,17.8,29.71,WSW,246,0.0,1.0,60,0.00,,---,0.04,VWS V14.00,2013-12-10 23:16:00,
2013-12-10 17:21:00,29.7,17.5,29.71,WSW,245,0.0,1.0,60,0.00,,---,0.04,VWS V14.00,2013-12-10 23:21:00,
2013-12-10 17:26:00,29.5,17.3,29.71,WSW,245,0.0,1.0,60,0.00,,---,0.04,VWS V14.00,2013-12-10 23:26:00,
2013-12-10 17:31:00,29.3,17.1,29.71,WSW,245,0.0,1.0,60,0.00,,---,0.04,VWS V14.00,2013-12-10 23:31:00,
2013-12-10 17:36:00,28.8,16.6,29.71,WSW,245,0.0,1.0,60,0.00,,---,0.04,VWS V14.00,2013-12-10 23:36:00,
2013-12-10 17:41:00,28.6,16.9,29.71,WSW,245,0.0,1.0,61,0.00,,---,0.04,VWS V14.00,2013-12-10 23:41:00,
2013-12-10 17:46:00,28.2,16.5,29.71,WSW,246,0.0,1.0,61,0.00,,---,0.04,VWS V14.00,2013-12-10 23:46:00,
2013-12-10 17:51:00,28.0,16.3,29.71,WSW,245,0.0,1.0,61,0.00,,---,0.04,VWS V14.00,2013-12-10 23:51:00,
2013-12-10 17:56:00,27.9,16.5,29.71,WSW,245,0.0,1.0,62,0.00,,---,0.04,VWS V14.00,2013-12-10 23:56:00,
2013-12-10 18:01:00,27.5,16.2,29.71,WSW,245,0.0,1.0,62,0.00,,---,0.04,VWS V14.00,2013-12-11 00:01:00,
2013-12-10 18:06:00,27.3,16.0,29.71,WSW,245,0.0,1.0,62,0.00,,---,0.04,VWS V14.00,2013-12-11 00:06:00,
2013-12-10 18:11:00,27.1,16.2,29.71,WSW,246,0.0,1.0,63,0.00,,---,0.04,VWS V14.00,2013-12-11 00:11:00,
2013-12-10 18:16:00,27.0,16.1,29.71,WSW,246,0.0,1.0,63,0.00,,---,0.04,VWS V14.00,2013-12-11 00:16:00,
2013-12-10 18:21:00,27.0,16.1,29.71,WSW,245,0.0,1.0,63,0.00,,---,0.04,VWS V14.00,2013-12-11 00:21:00,
2013-12-10 18:26:00,26.8,16.2,29.71,WSW,246,0.0,1.0,64,0.00,,---,0.04,VWS V14.00,2013-12-11 00:26:00,
2013-12-10 18:31:00,26.6,16.1,29.71,WSW,245,0.0,1.0,64,0.00,,---,0.04,VWS V14.00,2013-12-11 00:31:00,
2013-12-10 18:36:00,26.4,16.3,29.71,WSW,245,0.0,1.0,65,0.00,,---,0.04,VWS V14.00,2013-12-11 00:36:00,
2013-12-10 18:41:00,26.2,16.1,29.71,WSW,246,0.0,1.0,65,0.00,,---,0.04,VWS V14.00,2013-12-11 00:41:00,
2013-12-10 18:46:00,26.1,15.9,29.71,WSW,245,0.0,1.0,65,0.00,,---,0.04,VWS V14.00,2013-12-11 00:46:00,
2013-12-10 18:51:00,25.9,15.8,29.71,WSW,246,0.0,1.0,65,0.00,,---,0.04,VWS V14.00,2013-12-11 00:51:00,
2013-12-10 18:56:00,25.9,16.1,29.71,WSW,246,0.0,1.0,66,0.00,,---,0.04,VWS V14.00,2013-12-11 00:56:00,
2013-12-10 19:01:00,25.9,16.1,29.71,WSW,245,0.0,1.0,66,0.00,,---,0.04,VWS V14.00,2013-12-11 01:01:00,
2013-12-10 19:06:00,25.7,15.9,29.71,WSW,246,0.0,1.0,66,0.00,,---,0.04,VWS V14.00,2013-12-11 01:06:00,
2013-12-10 19:11:00,25.7,16.3,29.71,WSW,245,0.0,1.0,67,0.00,,---,0.04,VWS V14.00,2013-12-11 01:11:00,
2013-12-10 19:16:00,25.7,16.3,29.71,WSW,245,0.0,1.0,67,0.00,,---,0.04,VWS V14.00,2013-12-11 01:16:00,
2013-12-10 19:21:00,25.7,16.3,29.71,WSW,245,0.0,1.0,67,0.00,,---,0.04,VWS V14.00,2013-12-11 01:21:00,
2013-12-10 19:26:00,25.5,16.4,29.71,WSW,245,0.0,1.0,68,0.00,,---,0.04,VWS V14.00,2013-12-11 01:26:00,
2013-12-10 19:31:00,25.2,16.1,29.71,WSW,245,0.0,1.0,68,0.00,,---,0.04,VWS V14.00,2013-12-11 01:31:00,
2013-12-10 19:36:00,25.0,15.9,29.71,WSW,246,0.0,1.0,68,0.00,,---,0.04,VWS V14.00,2013-12-11 01:36:00,
2013-12-10 19:41:00,25.0,15.9,29.71,WSW,246,0.0,1.0,68,0.00,,---,0.04,VWS V14.00,2013-12-11 01:41:00,
2013-12-10 19:46:00,24.8,16.1,29.71,WSW,245,0.0,1.0,69,0.00,,---,0.04,VWS V14.00,2013-12-11 01:46:00,
2013-12-10 19:51:00,24.4,15.7,29.71,WSW,246,0.0,1.0,69,0.00,,---,0.04,VWS V14.00,2013-12-11 01:51:00,
2013-12-10 19:56:00,24.4,15.7,29.71,WSW,246,0.0,1.0,69,0.00,,---,0.04,VWS V14.00,2013-12-11 01:56:00,
2013-12-10 20:01:00,24.4,15.7,29.71,WSW,246,0.0,1.0,69,0.00,,---,0.04,VWS V14.00,2013-12-11 02:01:00,
2013-12-10 20:06:00,24.4,16.1,29.71,WSW,246,0.0,1.0,70,0.00,,---,0.04,VWS V14.00,2013-12-11 02:06:00,
2013-12-10 20:11:00,24.6,16.2,29.71,WSW,246,0.0,1.0,70,0.00,,---,0.04,VWS V14.00,2013-12-11 02:11:00,
2013-12-10 20:16:00,24.6,16.6,29.71,WSW,245,0.0,1.0,71,0.00,,---,0.04,VWS V14.00,2013-12-11 02:16:00,
2013-12-10 20:21:00,24.8,16.8,29.71,WSW,246,0.0,1.0,71,0.00,,---,0.04,VWS V14.00,2013-12-11 02:21:00,
2013-12-10 20:26:00,25.0,16.9,29.71,WSW,246,0.0,1.0,71,0.00,,---,0.04,VWS V14.00,2013-12-11 02:26:00,
2013-12-10 20:31:00,25.0,16.9,29.71,WSW,246,0.0,1.0,71,0.00,,---,0.04,VWS V14.00,2013-12-11 02:31:00,
2013-12-10 20:36:00,25.0,17.2,29.71,WSW,245,0.0,1.0,72,0.00,,---,0.04,VWS V14.00,2013-12-11 02:36:00,
2013-12-10 20:41:00,25.0,17.2,29.71,WSW,245,0.0,1.0,72,0.00,,---,0.04,VWS V14.00,2013-12-11 02:41:00,
2013-12-10 20:46:00,25.0,17.6,29.71,WSW,245,0.0,1.0,73,0.00,,---,0.04,VWS V14.00,2013-12-11 02:46:00,
2013-12-10 20:51:00,25.2,17.7,29.71,WSW,246,0.0,1.0,73,0.00,,---,0.04,VWS V14.00,2013-12-11 02:51:00,
2013-12-10 20:56:00,25.2,18.0,29.71,WSW,245,0.0,1.0,74,0.00,,---,0.04,VWS V14.00,2013-12-11 02:56:00,
2013-12-10 21:01:00,25.3,18.2,29.71,WSW,245,0.0,1.0,74,0.00,,---,0.04,VWS V14.00,2013-12-11 03:01:00,
2013-12-10 21:06:00,25.3,18.5,29.71,WSW,245,0.0,1.0,75,0.00,,---,0.04,VWS V14.00,2013-12-11 03:06:00,
2013-12-10 21:11:00,25.3,18.5,29.71,WSW,245,0.0,1.0,75,0.00,,---,0.04,VWS V14.00,2013-12-11 03:11:00,
2013-12-10 21:16:00,25.3,18.5,29.71,WSW,243,0.0,1.0,75,0.00,,---,0.04,VWS V14.00,2013-12-11 03:16:00,
2013-12-10 21:21:00,25.3,18.9,29.71,WSW,258,0.0,1.0,76,0.00,,---,0.04,VWS V14.00,2013-12-11 03:21:00,
2013-12-10 21:26:00,25.3,18.9,29.71,West,269,0.0,1.0,76,0.00,,---,0.04,VWS V14.00,2013-12-11 03:26:00,
2013-12-10 21:31:00,25.2,18.7,29.71,West,269,0.0,1.0,76,0.00,,---,0.04,VWS V14.00,2013-12-11 03:31:00,
2013-12-10 21:36:00,25.3,18.9,29.71,West,277,0.0,1.0,76,0.00,,---,0.04,VWS V14.00,2013-12-11 03:36:00,
2013-12-10 21:41:00,25.5,19.3,29.74,West,277,0.0,1.0,77,0.00,,---,0.04,VWS V14.00,2013-12-11 03:41:00,
2013-12-10 21:46:00,25.5,19.3,29.74,West,268,0.0,1.0,77,0.00,,---,0.04,VWS V14.00,2013-12-11 03:46:00,
2013-12-10 21:51:00,25.5,19.3,29.74,West,274,0.0,1.0,77,0.00,,---,0.04,VWS V14.00,2013-12-11 03:51:00,
2013-12-10 21:56:00,25.3,19.1,29.74,West,270,0.0,1.0,77,0.00,,---,0.04,VWS V14.00,2013-12-11 03:56:00,
2013-12-10 22:01:00,25.5,19.3,29.74,West,272,0.0,1.0,77,0.00,,---,0.04,VWS V14.00,2013-12-11 04:01:00,
2013-12-10 22:06:00,25.5,19.6,29.74,West,272,0.0,1.0,78,0.00,,---,0.04,VWS V14.00,2013-12-11 04:06:00,
2013-12-10 22:11:00,25.5,19.6,29.74,West,265,0.0,1.0,78,0.00,,---,0.04,VWS V14.00,2013-12-11 04:11:00,
2013-12-10 22:16:00,25.3,19.5,29.74,West,267,0.0,1.0,78,0.00,,---,0.04,VWS V14.00,2013-12-11 04:16:00,
2013-12-10 22:21:00,25.3,19.5,29.74,West,265,0.0,1.0,78,0.00,,---,0.04,VWS V14.00,2013-12-11 04:21:00,
2013-12-10 22:26:00,25.2,19.3,29.74,West,264,0.0,1.0,78,0.00,,---,0.04,VWS V14.00,2013-12-11 04:26:00,
2013-12-10 22:31:00,25.2,19.3,29.74,West,268,0.0,1.0,78,0.00,,---,0.04,VWS V14.00,2013-12-11 04:31:00,
2013-12-10 22:36:00,25.2,19.3,29.74,West,267,0.0,1.0,78,0.00,,---,0.04,VWS V14.00,2013-12-11 04:36:00,
2013-12-10 22:41:00,25.2,19.3,29.74,West,271,0.0,1.0,78,0.00,,---,0.04,VWS V14.00,2013-12-11 04:41:00,
2013-12-10 22:46:00,25.0,19.1,29.74,West,271,0.0,1.0,78,0.00,,---,0.04,VWS V14.00,2013-12-11 04:46:00,
2013-12-10 22:51:00,24.8,18.9,29.77,West,260,0.0,1.0,78,0.00,,---,0.04,VWS V14.00,2013-12-11 04:51:00,
2013-12-10 22:56:00,24.6,18.8,29.77,West,276,0.0,1.0,78,0.00,,---,0.04,VWS V14.00,2013-12-11 04:56:00,
2013-12-10 23:01:00,24.6,18.8,29.77,West,275,0.0,1.0,78,0.00,,---,0.04,VWS V14.00,2013-12-11 05:01:00,
2013-12-10 23:06:00,24.6,18.8,29.77,West,266,0.0,1.0,78,0.00,,---,0.04,VWS V14.00,2013-12-11 05:06:00,
2013-12-10 23:11:00,24.4,18.6,29.77,West,267,0.0,1.0,78,0.00,,---,0.04,VWS V14.00,2013-12-11 05:11:00,
2013-12-10 23:16:00,24.4,18.6,29.77,West,266,0.0,1.0,78,0.00,,---,0.04,VWS V14.00,2013-12-11 05:16:00,
2013-12-10 23:21:00,24.1,18.2,29.77,West,267,0.0,1.0,78,0.00,,---,0.04,VWS V14.00,2013-12-11 05:21:00,
2013-12-10 23:26:00,23.9,18.0,29.77,West,267,0.0,1.0,78,0.00,,---,0.04,VWS V14.00,2013-12-11 05:26:00,
2013-12-10 23:31:00,23.5,17.7,29.77,West,267,0.0,1.0,78,0.00,,---,0.04,VWS V14.00,2013-12-11 05:31:00,
2013-12-10 23:36:00,23.5,17.7,29.74,West,267,0.0,1.0,78,0.00,,---,0.04,VWS V14.00,2013-12-11 05:36:00,
2013-12-10 23:41:00,23.4,17.5,29.74,West,267,0.0,1.0,78,0.00,,---,0.04,VWS V14.00,2013-12-11 05:41:00,
2013-12-10 23:46:00,23.4,17.5,29.74,West,267,0.0,1.0,78,0.00,,---,0.04,VWS V14.00,2013-12-11 05:46:00,
2013-12-10 23:51:00,23.4,17.5,29.74,West,267,0.0,1.0,78,0.00,,---,0.04,VWS V14.00,2013-12-11 05:51:00,
2013-12-10 23:56:00,23.0,17.2,29.74,West,267,0.0,1.0,78,0.00,,---,0.04,VWS V14.00,2013-12-11 05:56:00,